createdAt,value
2022-10-19T00:00:11.362Z,89.73
2022-10-19T00:05:26.077Z,89.31
2022-10-19T00:10:21.200Z,89.29
2022-10-19T00:15:16.039Z,89.20
2022-10-19T00:20:13.459Z,89.12
2022-10-19T00:25:11.018Z,89.03
2022-10-19T00:30:08.215Z,88.98
2022-10-19T00:35:03.277Z,88.86
2022-10-19T00:39:58.169Z,88.77
2022-10-19T00:45:16.043Z,88.64
2022-10-19T00:50:15.082Z,88.56
2022-10-19T00:55:12.171Z,88.59
2022-10-19T01:00:11.004Z,88.65
2022-10-19T01:05:09.109Z,88.60
2022-10-19T01:10:05.889Z,88.68
2022-10-19T01:15:18.243Z,88.71
2022-10-19T01:20:51.344Z,88.91
2022-10-19T01:26:02.200Z,88.91
2022-10-19T01:31:05.615Z,89.00
2022-10-19T01:36:12.971Z,89.16
2022-10-19T01:41:17.605Z,89.36
2022-10-19T01:46:18.174Z,89.24
2022-10-19T01:51:19.314Z,89.42
2022-10-19T01:56:17.817Z,89.22
2022-10-19T02:01:16.560Z,89.30
2022-10-19T02:06:17.810Z,89.38
2022-10-19T02:11:12.341Z,89.23
2022-10-19T02:16:16.574Z,89.27
2022-10-19T02:21:12.063Z,89.27
2022-10-19T02:26:07.779Z,89.25
2022-10-19T02:31:04.387Z,89.06
2022-10-19T02:36:00.228Z,89.06
2022-10-19T02:41:07.245Z,89.02
2022-10-19T02:46:11.385Z,88.88
2022-10-19T02:51:26.626Z,88.87
2022-10-19T02:56:22.222Z,88.90
2022-10-19T03:01:17.281Z,88.91
2022-10-19T03:06:12.430Z,88.99
2022-10-19T03:11:07.451Z,89.17
2022-10-19T03:16:10.440Z,89.29
2022-10-19T03:21:08.982Z,89.31
2022-10-19T03:26:04.345Z,89.47
2022-10-19T03:31:00.182Z,89.54
2022-10-19T03:36:17.996Z,89.64
2022-10-19T03:41:13.989Z,89.81
2022-10-19T03:46:09.446Z,89.89
2022-10-19T03:51:08.062Z,89.97
2022-10-19T03:56:12.537Z,90.18
2022-10-19T04:01:11.404Z,89.97
2022-10-19T04:06:11.492Z,90.07
2022-10-19T04:11:10.427Z,89.95
2022-10-19T04:16:07.051Z,89.85
2022-10-19T04:21:04.676Z,89.76
2022-10-19T04:26:03.569Z,89.70
2022-10-19T04:31:01.916Z,89.71
2022-10-19T04:36:00.845Z,89.75
2022-10-19T04:40:56.114Z,89.71
2022-10-19T04:45:50.999Z,89.65
2022-10-19T04:50:45.689Z,89.57
2022-10-19T04:55:48.206Z,89.53
2022-10-19T05:00:43.039Z,89.35
2022-10-19T05:05:38.166Z,89.38
2022-10-19T05:10:34.142Z,89.55
2022-10-19T05:15:28.952Z,89.37
2022-10-19T05:20:24.828Z,89.13
2022-10-19T05:25:20.037Z,89.01
2022-10-19T05:30:14.872Z,88.98
2022-10-19T05:35:11.030Z,88.96
2022-10-19T05:40:09.968Z,89.04
2022-10-19T05:45:06.647Z,88.92
2022-10-19T05:50:01.773Z,88.81
2022-10-19T05:54:57.819Z,88.64
2022-10-19T05:59:56.166Z,88.58
2022-10-19T06:04:51.665Z,88.41
2022-10-19T06:09:47.294Z,88.15
2022-10-19T06:14:42.783Z,87.98
2022-10-19T06:19:38.436Z,87.77
2022-10-19T06:24:33.512Z,87.59
2022-10-19T06:29:28.620Z,87.38
2022-10-19T06:34:24.405Z,86.98
2022-10-19T06:39:19.921Z,86.69
2022-10-19T06:44:14.797Z,86.85
2022-10-19T06:49:14.312Z,86.97
2022-10-19T06:54:09.800Z,86.92
2022-10-19T06:59:04.828Z,86.96
2022-10-19T07:03:59.458Z,87.09
2022-10-19T07:08:54.565Z,86.95
2022-10-19T07:13:49.253Z,86.84
2022-10-19T07:18:44.187Z,86.75
2022-10-19T07:23:41.549Z,86.60
2022-10-19T07:28:36.716Z,86.28
2022-10-19T07:33:31.686Z,86.13
2022-10-19T07:38:26.802Z,86.27
2022-10-19T07:43:21.141Z,86.16
2022-10-19T07:48:16.201Z,85.53
2022-10-19T07:53:11.072Z,84.96
2022-10-19T07:58:05.856Z,84.79
2022-10-19T08:03:31.699Z,84.68
2022-10-19T08:08:15.541Z,84.36
2022-10-19T08:13:11.111Z,84.35
2022-10-19T08:18:06.416Z,84.08
2022-10-19T08:23:01.539Z,83.67
2022-10-19T08:27:56.973Z,83.74
2022-10-19T08:32:52.217Z,84.02
2022-10-19T08:37:47.928Z,84.26
2022-10-19T08:42:57.325Z,84.57
2022-10-19T08:48:21.526Z,84.91
2022-10-19T08:53:27.396Z,85.18
2022-10-19T08:58:47.110Z,85.30
2022-10-19T09:03:55.403Z,85.52
2022-10-19T09:08:55.480Z,85.81
2022-10-19T09:14:04.805Z,85.91
2022-10-19T09:19:00.051Z,86.03
2022-10-19T09:24:04.122Z,86.01
2022-10-19T09:29:07.220Z,86.02
2022-10-19T09:34:11.906Z,85.80
2022-10-19T09:39:07.266Z,85.73
2022-10-19T09:44:02.584Z,85.08
2022-10-19T09:49:01.194Z,83.26
2022-10-19T09:53:56.992Z,83.10
2022-10-19T09:58:55.029Z,83.26
2022-10-19T10:03:55.238Z,83.52
2022-10-19T10:08:57.555Z,84.07
2022-10-19T10:13:55.782Z,84.33
2022-10-19T10:19:01.329Z,84.52
2022-10-19T10:24:16.411Z,84.53
2022-10-19T10:29:28.971Z,84.38
2022-10-19T10:34:46.018Z,84.10
2022-10-19T10:39:46.763Z,84.09
2022-10-19T10:44:50.826Z,84.03
2022-10-19T10:49:56.136Z,82.86
2022-10-19T10:55:02.714Z,82.14
2022-10-19T11:00:07.571Z,81.89
2022-10-19T11:05:10.835Z,82.06
2022-10-19T11:10:20.350Z,81.33
2022-10-19T11:15:23.705Z,80.71
2022-10-19T11:20:19.251Z,79.79
2022-10-19T11:25:38.176Z,78.07
2022-10-19T11:30:42.819Z,77.84
2022-10-19T11:35:52.601Z,76.29
2022-10-19T11:41:19.036Z,75.09
2022-10-19T11:46:25.757Z,74.33
2022-10-19T11:51:32.832Z,73.61
2022-10-19T11:56:58.055Z,72.12
2022-10-19T12:02:03.035Z,69.92
2022-10-19T12:07:15.582Z,68.04
2022-10-19T12:12:25.244Z,67.34
2022-10-19T12:17:29.490Z,66.93
2022-10-19T12:22:29.346Z,66.44
2022-10-19T12:27:32.970Z,67.12
2022-10-19T12:32:31.353Z,67.67
2022-10-19T12:37:33.038Z,66.52
2022-10-19T12:42:38.816Z,65.65
2022-10-19T12:47:34.720Z,64.79
2022-10-19T12:52:44.996Z,62.90
2022-10-19T12:57:47.356Z,61.97
2022-10-19T13:02:44.201Z,60.57
2022-10-19T13:07:39.669Z,60.68
2022-10-19T13:12:49.709Z,58.51
2022-10-19T13:17:45.922Z,57.63
2022-10-19T13:22:41.716Z,58.04
2022-10-19T13:27:40.639Z,59.22
2022-10-19T13:32:42.699Z,60.32
2022-10-19T13:37:38.314Z,61.19
2022-10-19T13:42:33.721Z,61.90
2022-10-19T13:47:39.348Z,62.77
2022-10-19T13:53:01.179Z,63.81
2022-10-19T13:58:40.208Z,64.55
2022-10-19T14:03:57.437Z,65.47
2022-10-19T14:09:38.084Z,66.22
2022-10-19T14:19:47.162Z,67.40
2022-10-19T14:24:42.736Z,67.48
2022-10-19T14:29:47.133Z,67.56
2022-10-19T14:34:43.983Z,67.89
2022-10-19T14:39:38.821Z,68.22
2022-10-19T14:44:41.159Z,68.47
2022-10-19T14:49:36.009Z,68.47
2022-10-19T14:54:36.892Z,68.11
2022-10-19T14:59:37.711Z,67.55
2022-10-19T15:04:38.669Z,66.70
2022-10-19T15:09:47.872Z,66.67
2022-10-19T15:14:45.421Z,66.83
2022-10-19T15:19:43.021Z,67.05
2022-10-19T15:24:38.386Z,67.15
2022-10-19T15:29:33.056Z,67.37
2022-10-19T15:34:31.026Z,67.67
2022-10-19T15:39:39.845Z,67.81
2022-10-19T15:44:44.318Z,67.92
2022-10-19T15:49:59.160Z,67.91
2022-10-19T15:54:56.259Z,68.07
2022-10-19T15:59:52.440Z,68.25
2022-10-19T16:04:48.073Z,68.49
2022-10-19T16:09:43.331Z,68.67
2022-10-19T16:14:38.131Z,68.87
2022-10-19T16:19:33.123Z,69.07
2022-10-19T16:24:28.716Z,69.23
2022-10-19T16:29:28.153Z,69.42
2022-10-19T16:34:24.200Z,69.70
2022-10-19T16:39:20.040Z,69.89
2022-10-19T16:44:15.293Z,70.09
2022-10-19T16:49:10.526Z,70.16
2022-10-19T16:54:09.227Z,70.29
2022-10-19T16:59:06.225Z,70.64
2022-10-19T17:04:01.259Z,70.76
2022-10-19T17:14:14.725Z,71.36
2022-10-19T17:19:11.435Z,71.83
2022-10-19T17:24:13.841Z,72.07
2022-10-19T17:29:12.718Z,72.24
2022-10-19T17:34:08.682Z,72.50
2022-10-19T17:39:08.206Z,72.83
2022-10-19T17:44:05.920Z,73.05
2022-10-19T17:49:01.140Z,73.21
2022-10-19T17:53:59.403Z,73.40
2022-10-19T17:58:55.812Z,73.49
2022-10-19T18:03:52.020Z,73.66
2022-10-19T18:08:49.915Z,73.79
2022-10-19T18:13:45.701Z,73.98
2022-10-19T18:18:45.184Z,74.24
2022-10-19T18:23:41.809Z,74.57
2022-10-19T18:28:37.750Z,74.54
2022-10-19T18:33:32.655Z,74.66
2022-10-19T18:38:27.524Z,74.79
2022-10-19T18:43:22.585Z,75.16
2022-10-19T18:48:17.936Z,75.26
2022-10-19T18:53:14.129Z,75.39
2022-10-19T18:58:10.205Z,75.78
2022-10-19T19:03:06.957Z,75.89
2022-10-19T19:08:03.157Z,76.08
2022-10-19T19:12:58.232Z,76.25
2022-10-19T19:17:56.052Z,76.25
2022-10-19T19:22:51.013Z,76.82
2022-10-19T19:27:46.460Z,76.88
2022-10-19T19:32:43.427Z,76.99
2022-10-19T19:37:39.186Z,77.21
2022-10-19T19:42:35.428Z,77.37
2022-10-19T19:47:30.239Z,77.60
2022-10-19T19:52:25.421Z,77.87
2022-10-19T19:57:19.823Z,78.03
2022-10-19T20:02:16.287Z,78.06
2022-10-19T20:07:11.204Z,78.11
2022-10-19T20:12:06.653Z,78.17
2022-10-19T20:17:04.192Z,78.23
2022-10-19T20:21:59.977Z,78.32
2022-10-19T20:26:56.569Z,78.44
2022-10-19T20:31:51.716Z,78.58
2022-10-19T20:36:47.268Z,78.73
2022-10-19T20:41:43.800Z,79.02
2022-10-19T20:46:39.379Z,78.95
2022-10-19T20:51:37.965Z,79.26
2022-10-19T20:56:36.502Z,79.51
2022-10-19T21:01:35.177Z,79.49
2022-10-19T21:06:35.274Z,79.52
2022-10-19T21:11:32.791Z,79.76
2022-10-19T21:16:33.288Z,80.03
2022-10-19T21:21:31.362Z,80.15
2022-10-19T21:26:28.674Z,80.38
2022-10-19T21:31:25.890Z,80.98
2022-10-19T21:36:24.534Z,81.10
2022-10-19T21:41:25.490Z,81.39
2022-10-19T21:46:23.684Z,81.76
2022-10-19T21:51:37.724Z,81.96
2022-10-19T21:56:33.689Z,81.73
2022-10-19T22:01:35.972Z,81.80
2022-10-19T22:06:36.479Z,82.04
2022-10-19T22:11:31.893Z,81.88
2022-10-19T22:16:29.147Z,82.02
2022-10-19T22:21:26.589Z,81.96
2022-10-19T22:26:26.616Z,82.15
2022-10-19T22:31:20.922Z,82.00
2022-10-19T22:36:16.731Z,82.00
2022-10-19T22:42:23.264Z,82.27
2022-10-19T22:47:36.902Z,82.60
2022-10-19T22:52:32.616Z,82.58
2022-10-19T22:57:27.766Z,82.67
2022-10-19T23:02:22.468Z,82.49
2022-10-19T23:07:17.630Z,82.72
2022-10-19T23:12:12.447Z,82.90
2022-10-19T23:17:07.419Z,83.14
2022-10-19T23:22:01.512Z,83.39
2022-10-19T23:26:56.602Z,83.61
2022-10-19T23:31:51.186Z,83.58
2022-10-19T23:36:46.235Z,83.76
2022-10-19T23:41:41.026Z,83.55
2022-10-19T23:46:38.866Z,83.68
2022-10-19T23:51:33.748Z,83.87
2022-10-19T23:56:31.379Z,83.72
